createdAt,value
2022-11-07T00:01:02.989Z,18.12
2022-11-07T00:06:06.433Z,18.11
2022-11-07T00:11:09.901Z,18.14
2022-11-07T00:16:13.505Z,18.13
2022-11-07T00:21:16.939Z,18.09
2022-11-07T00:26:20.373Z,18.11
2022-11-07T00:31:24.075Z,18.17
2022-11-07T00:36:27.593Z,18.18
2022-11-07T00:41:31.034Z,18.13
2022-11-07T00:46:34.553Z,18.11
2022-11-07T00:51:38.034Z,18.15
2022-11-07T00:56:41.518Z,18.09
2022-11-07T01:01:45.115Z,18.05
2022-11-07T01:06:48.861Z,18.02
2022-11-07T01:11:52.309Z,18.04
2022-11-07T01:16:55.772Z,18.00
2022-11-07T01:21:59.248Z,17.97
2022-11-07T01:27:02.771Z,18.00
2022-11-07T01:32:07.072Z,17.96
2022-11-07T01:37:10.599Z,17.98
2022-11-07T01:42:14.125Z,17.93
2022-11-07T01:47:17.561Z,17.91
2022-11-07T01:52:21.091Z,17.88
2022-11-07T01:57:24.655Z,17.89
2022-11-07T02:02:28.231Z,17.87
2022-11-07T02:07:31.777Z,17.88
2022-11-07T02:12:35.215Z,17.87
2022-11-07T02:17:38.663Z,17.83
2022-11-07T02:22:42.102Z,17.84
2022-11-07T02:27:45.595Z,17.82
2022-11-07T02:32:49.025Z,17.80
2022-11-07T02:37:52.530Z,17.79
2022-11-07T02:42:56.142Z,17.79
2022-11-07T02:47:59.579Z,17.73
2022-11-07T02:53:03.234Z,17.75
2022-11-07T02:58:06.683Z,17.73
2022-11-07T03:03:10.182Z,17.72
2022-11-07T03:08:13.669Z,17.68
2022-11-07T03:13:17.457Z,17.74
2022-11-07T03:18:21.081Z,17.76
2022-11-07T03:23:24.513Z,17.72
2022-11-07T03:28:28.033Z,17.68
2022-11-07T03:33:31.552Z,17.69
2022-11-07T03:38:35.110Z,17.69
2022-11-07T03:43:38.580Z,17.68
2022-11-07T03:48:42.396Z,17.67
2022-11-07T03:53:45.973Z,17.67
2022-11-07T03:58:49.777Z,17.62
2022-11-07T04:03:56.184Z,17.62
2022-11-07T04:08:59.922Z,17.64
2022-11-07T04:14:32.203Z,17.61
2022-11-07T04:19:35.625Z,17.57
2022-11-07T04:24:42.978Z,17.51
2022-11-07T04:29:49.073Z,17.55
2022-11-07T04:34:52.528Z,17.52
2022-11-07T04:39:56.265Z,17.50
2022-11-07T04:44:59.819Z,17.55
2022-11-07T04:50:03.283Z,17.52
2022-11-07T04:55:06.753Z,17.49
2022-11-07T05:00:10.249Z,17.49
2022-11-07T05:05:13.799Z,17.49
2022-11-07T05:10:17.665Z,17.47
2022-11-07T05:15:21.447Z,17.47
2022-11-07T05:20:24.943Z,17.45
2022-11-07T05:25:28.428Z,17.40
2022-11-07T05:30:31.968Z,17.32
2022-11-07T05:35:35.653Z,17.37
2022-11-07T05:40:39.206Z,17.51
2022-11-07T05:45:42.683Z,17.44
2022-11-07T05:50:46.141Z,17.45
2022-11-07T05:55:49.755Z,17.39
2022-11-07T06:00:53.484Z,17.38
2022-11-07T06:05:56.929Z,17.37
2022-11-07T06:11:00.466Z,17.37
2022-11-07T06:16:03.904Z,17.36
2022-11-07T06:21:07.393Z,17.39
2022-11-07T06:26:11.177Z,17.34
2022-11-07T06:31:14.610Z,17.29
2022-11-07T06:36:18.052Z,17.34
2022-11-07T06:41:21.510Z,17.32
2022-11-07T06:46:25.299Z,17.31
2022-11-07T06:51:28.883Z,17.29
2022-11-07T06:56:32.388Z,17.29
2022-11-07T07:01:36.107Z,17.22
2022-11-07T07:06:39.676Z,17.24
2022-11-07T07:11:45.038Z,17.25
2022-11-07T07:16:48.468Z,17.31
2022-11-07T07:21:51.992Z,17.31
2022-11-07T07:26:55.452Z,17.43
2022-11-07T07:31:59.029Z,17.38
2022-11-07T07:37:02.518Z,17.36
2022-11-07T07:42:06.099Z,17.33
2022-11-07T07:47:11.431Z,17.36
2022-11-07T07:52:16.284Z,17.33
2022-11-07T07:57:19.811Z,17.32
2022-11-07T08:02:23.351Z,17.31
2022-11-07T08:07:26.837Z,17.31
2022-11-07T08:12:30.367Z,17.28
2022-11-07T08:17:33.857Z,17.25
2022-11-07T08:22:37.293Z,17.27
2022-11-07T08:27:41.516Z,17.27
2022-11-07T08:32:45.063Z,17.30
2022-11-07T08:37:48.526Z,17.26
2022-11-07T08:42:51.974Z,17.23
2022-11-07T08:47:55.484Z,17.24
2022-11-07T08:53:02.817Z,17.30
2022-11-07T08:58:06.838Z,17.28
2022-11-07T09:08:35.221Z,17.25
2022-11-07T09:13:38.938Z,17.21
2022-11-07T09:18:42.369Z,17.20
2022-11-07T09:23:46.084Z,17.21
2022-11-07T09:28:52.335Z,17.18
2022-11-07T09:33:56.638Z,17.15
2022-11-07T09:39:01.053Z,17.13
2022-11-07T09:44:04.980Z,17.13
2022-11-07T09:49:08.590Z,17.13
2022-11-07T09:54:12.025Z,17.11
2022-11-07T09:59:15.636Z,17.12
2022-11-07T10:04:27.036Z,17.09
2022-11-07T10:09:30.900Z,17.14
2022-11-07T10:14:35.044Z,17.20
2022-11-07T10:19:38.482Z,16.94
2022-11-07T10:24:42.089Z,17.18
2022-11-07T10:29:47.203Z,17.28
2022-11-07T10:34:54.387Z,16.75
2022-11-07T10:39:58.254Z,16.35
2022-11-07T10:45:02.097Z,16.98
2022-11-07T10:50:05.526Z,17.19
2022-11-07T10:55:09.192Z,17.29
2022-11-07T11:00:12.681Z,17.32
2022-11-07T11:05:16.247Z,17.15
2022-11-07T11:10:19.690Z,16.51
2022-11-07T11:15:23.229Z,16.67
2022-11-07T11:20:26.689Z,17.00
2022-11-07T11:25:30.263Z,17.09
2022-11-07T11:30:33.826Z,17.23
2022-11-07T11:35:41.684Z,17.36
2022-11-07T11:40:45.811Z,16.75
2022-11-07T11:45:49.295Z,17.37
2022-11-07T11:50:52.790Z,17.44
2022-11-07T11:55:56.236Z,17.40
2022-11-07T12:00:59.720Z,17.40
2022-11-07T12:06:03.244Z,17.44
2022-11-07T12:11:06.827Z,17.42
2022-11-07T12:16:10.574Z,17.41
2022-11-07T12:21:14.012Z,17.60
2022-11-07T12:26:17.526Z,17.49
2022-11-07T12:31:21.000Z,17.37
2022-11-07T12:36:24.690Z,17.35
2022-11-07T12:41:28.142Z,17.32
2022-11-07T12:46:31.585Z,17.27
2022-11-07T12:51:35.452Z,17.28
2022-11-07T12:56:39.213Z,17.33
2022-11-07T13:01:42.851Z,17.32
2022-11-07T13:06:46.718Z,17.25
2022-11-07T13:11:50.234Z,17.36
2022-11-07T13:16:53.758Z,17.39
2022-11-07T13:21:57.613Z,17.49
2022-11-07T13:27:01.083Z,17.45
2022-11-07T13:32:04.600Z,17.46
2022-11-07T13:37:08.417Z,17.50
2022-11-07T13:42:12.179Z,17.47
2022-11-07T13:47:15.592Z,17.38
2022-11-07T13:52:19.327Z,17.38
2022-11-07T13:57:22.955Z,17.20
2022-11-07T14:02:26.565Z,17.24
2022-11-07T14:07:30.134Z,17.26
2022-11-07T14:12:34.833Z,17.26
2022-11-07T14:17:38.358Z,17.29
2022-11-07T14:22:41.909Z,17.28
2022-11-07T14:27:45.368Z,17.23
2022-11-07T14:32:48.807Z,17.20
2022-11-07T14:37:52.262Z,17.17
2022-11-07T14:42:56.030Z,17.17
2022-11-07T14:47:59.822Z,17.15
2022-11-07T14:53:03.275Z,17.10
2022-11-07T14:58:06.739Z,17.03
2022-11-07T15:03:10.226Z,16.99
2022-11-07T15:08:13.919Z,17.00
2022-11-07T15:13:17.609Z,17.07
2022-11-07T15:18:21.417Z,17.06
2022-11-07T15:23:24.867Z,17.05
2022-11-07T15:28:28.301Z,17.03
2022-11-07T15:33:31.809Z,17.00
2022-11-07T15:38:35.365Z,16.99
2022-11-07T15:43:38.897Z,16.97
2022-11-07T15:48:42.357Z,16.96
2022-11-07T15:53:45.805Z,16.94
2022-11-07T15:58:49.285Z,16.89
2022-11-07T16:03:52.738Z,16.94
2022-11-07T16:08:56.192Z,16.88
2022-11-07T16:14:29.438Z,16.92
2022-11-07T16:19:23.079Z,16.92
2022-11-07T16:24:26.541Z,16.90
2022-11-07T16:29:30.031Z,16.90
2022-11-07T16:34:33.464Z,16.89
2022-11-07T16:39:36.950Z,16.89
2022-11-07T16:44:40.433Z,16.87
2022-11-07T16:49:43.911Z,16.86
2022-11-07T16:54:47.397Z,16.84
2022-11-07T16:59:52.397Z,16.82
2022-11-07T17:04:55.842Z,16.81
2022-11-07T17:09:59.344Z,16.80
2022-11-07T17:15:03.133Z,16.79
2022-11-07T17:20:06.561Z,16.78
2022-11-07T17:25:26.512Z,16.76
2022-11-07T17:30:30.094Z,16.76
2022-11-07T17:35:33.575Z,16.74
2022-11-07T17:40:37.049Z,16.73
2022-11-07T17:45:40.483Z,16.72
2022-11-07T17:50:43.925Z,16.72
2022-11-07T17:55:47.381Z,16.75
2022-11-07T18:00:50.906Z,16.67
2022-11-07T18:05:54.348Z,16.57
2022-11-07T18:10:57.791Z,16.63
2022-11-07T18:16:01.266Z,16.73
2022-11-07T18:21:04.844Z,16.81
2022-11-07T18:26:08.270Z,16.90
2022-11-07T18:31:11.712Z,16.64
2022-11-07T18:36:15.293Z,16.76
2022-11-07T18:41:55.210Z,16.88
2022-11-07T18:46:58.807Z,16.91
2022-11-07T18:52:02.296Z,17.07
2022-11-07T18:57:05.787Z,16.96
2022-11-07T19:02:09.771Z,17.02
2022-11-07T19:07:13.504Z,17.11
2022-11-07T19:12:16.977Z,17.17
2022-11-07T19:17:20.739Z,17.22
2022-11-07T19:22:24.549Z,17.25
2022-11-07T19:27:29.329Z,17.37
2022-11-07T19:32:32.845Z,17.44
2022-11-07T19:37:36.381Z,17.51
2022-11-07T19:42:40.017Z,17.51
2022-11-07T19:47:43.494Z,17.59
2022-11-07T19:52:47.001Z,17.62
2022-11-07T19:57:50.565Z,17.68
2022-11-07T20:02:54.152Z,17.74
2022-11-07T20:08:00.837Z,17.78
2022-11-07T20:13:08.458Z,17.81
2022-11-07T20:18:12.489Z,17.87
2022-11-07T20:23:16.383Z,17.90
2022-11-07T20:28:20.941Z,17.95
2022-11-07T20:33:25.128Z,18.04
2022-11-07T20:38:29.009Z,18.01
2022-11-07T20:43:33.936Z,18.05
2022-11-07T20:48:37.585Z,18.09
2022-11-07T20:53:46.739Z,18.12
2022-11-07T20:58:53.220Z,18.17
2022-11-07T21:03:56.680Z,18.14
2022-11-07T21:09:00.136Z,18.16
2022-11-07T21:14:03.760Z,17.68
2022-11-07T21:19:07.886Z,17.91
2022-11-07T21:24:11.686Z,18.23
2022-11-07T21:29:15.654Z,18.30
2022-11-07T21:34:19.125Z,18.25
2022-11-07T21:39:22.571Z,18.35
2022-11-07T21:44:26.000Z,18.27
2022-11-07T21:49:29.451Z,18.29
2022-11-07T21:54:32.975Z,18.37
2022-11-07T21:59:36.431Z,18.32
2022-11-07T22:04:39.914Z,18.32
2022-11-07T22:09:43.368Z,18.29
2022-11-07T22:14:49.134Z,18.29
2022-11-07T22:19:53.674Z,18.30
2022-11-07T22:24:57.116Z,18.31
2022-11-07T22:30:00.625Z,18.31
2022-11-07T22:35:08.990Z,18.29
2022-11-07T22:40:17.914Z,18.31
2022-11-07T22:45:24.592Z,18.30
2022-11-07T22:50:28.038Z,18.30
2022-11-07T22:55:31.559Z,18.27
2022-11-07T23:00:35.008Z,18.28
2022-11-07T23:05:38.530Z,18.28
2022-11-07T23:10:42.079Z,18.29
2022-11-07T23:15:45.585Z,18.37
2022-11-07T23:21:06.658Z,18.37
2022-11-07T23:26:10.832Z,18.26
2022-11-07T23:31:14.373Z,18.28
2022-11-07T23:36:17.917Z,18.27
2022-11-07T23:41:21.405Z,18.30
2022-11-07T23:46:38.747Z,18.32
2022-11-07T23:51:42.213Z,18.36
2022-11-07T23:56:45.702Z,18.34
